KAVQKOSA

Guest
Details From KAVQ - MARANA RGNL
To KOSA - MOUNT PLEASANT RGNL
Flight Number -
Tags decoded
Created
Modified
Stats Distance 840 nm / 1,556 km
Max Altitude 0 ft / 0 m
Waypoints 5
Social Downloads 0
Likes 0
Share VATSIM

Download

Looking for another format? Having issues loading an existing format? Contact us
Advertisement - Login to hide

Notes

Requested: KAVQ KDMN KEWM WHOLE F41 KOSA Unmatched points: KEWM

Route

KAVQ KDMN WHOLE F41 KOSA

ID Type Via Altitude Latitude Longitude Leg Dist Tot Dist Heading (true) Name
O KAVQ APT - 0 ft / 0 m 32.40905˚ -111.21838˚ - 0 nm - MARANA RGNL
KDMN APT - 0 ft / 0 m 32.26224˚ -107.72089˚ 177 nm 177 nm 92° / 94° DEMING MUNI
WHOLE FIX - 0 ft / 0 m 31.94500˚ -105.86375˚ 96 nm 274 nm 101° / 102° -
F41 APT - 0 ft / 0 m 32.32970˚ -96.66390˚ 468 nm 742 nm 85° / 90° ENNIS MUNI
O KOSA APT - 0 ft / 0 m 33.09553˚ -94.96152˚ 97 nm 839 nm 61° / 62° MOUNT PLEASANT RGNL

Altitude Profile

Advertisement - Login to hide

Weather


0- 5 10 15 20 25 30 35+ Temperature / ° C

Clouds and Precipitation
Forecast for 2018-05-23 06:00 UTC. Updated 3 hours ago

Ground ~20,000 ft ~40,000 ft Winds

KAVQ

Details ICAO KAVQ (AVW)
Name MARANA RGNL
Region United States
Timezone America/Phoenix (UTC-7.0)
Stats Elevation 2,031 ft / 619 m (AMSL)
Location 32.409049° -111.218379°
Runways 2
Magnetic Variation 9.877° E

METAR

KAVQ 230735Z AUTO 36003KT 10SM CLR 20/00 A2989 RMK AO2 T02040001

Decode

TAF

Not found

Departure Runways

ID Width Length Bearing (true) Bearing (mag) Surface Threshold Offset Overrun Length
03 75 ft / 23 m 3,895 ft / 1,187 m 45.33° 35.45° Asphalt 494 ft / 151 m 0 ft / 0 m
12 100 ft / 30 m 6,905 ft / 2,105 m 135.61° 125.73° Asphalt 0 ft / 0 m 0 ft / 0 m
21 75 ft / 23 m 3,895 ft / 1,187 m 225.34° 215.46° Asphalt 0 ft / 0 m 0 ft / 0 m
30 100 ft / 30 m 6,905 ft / 2,105 m 315.62° 305.74° Asphalt 0 ft / 0 m 0 ft / 0 m

KOSA

Details ICAO KOSA
Name MOUNT PLEASANT RGNL
Region United States
Timezone America/Chicago (UTC-5.0)
Stats Elevation 363 ft / 111 m (AMSL)
Location 33.095532° -94.961517°
Runways 1
Magnetic Variation 2.093° E

METAR

KOSA 230735Z AUTO 00000KT 10SM CLR 21/20 A3002 RMK AO1 T02050199

Decode

TAF

Not found

Destination Runways

ID Width Length Bearing (true) Bearing (mag) Surface Threshold Offset Overrun Length
17 75 ft / 23 m 5,014 ft / 1,528 m 172.04° 169.95° Asphalt 0 ft / 0 m 0 ft / 0 m
35 75 ft / 23 m 5,014 ft / 1,528 m 352.04° 349.95° Asphalt 0 ft / 0 m 0 ft / 0 m

Popular Alternatives